Impacts TAF Board INFO
FOR SITUATIONAL AWARENESS. NOT TO BE USED FOR FLIGHT PLANNING PURPOSES.
IDs:

KTPA - Tampa Intl Arpt, FL, US

Issued at 2059 UTC 21 Feb 2018
Updated at 2301 UTC 21 Feb 2018
Potential Impact None Slight Moderate High
Time2253Z 21/23Z 22/00Z 22/01Z 22/02Z 22/03Z 22/04Z 22/05Z 22/06Z 22/07Z 22/08Z 22/09Z 22/10Z 22/11Z>>
Type OBS PRVL PRVL PRVL PRVL PRVL PRVL PRVL PRVL PRVL PRVL PRVL PRVL PRVL
VIS 10 >6 >6 >6 >6 >6 >6 >6 >6 >6 >6 >6 >6 >6
CIG 55 -- -- -- -- -- -- -- -- -- -- -- -- --
Cover BKN SCT SCT SCT FEW FEW FEW FEW FEW FEW FEW FEW FEW FEW
FltCat VFR VFR VFR VFR VFR VFR VFR VFR VFR VFR VFR VFR VFR VFR
WX -- -- -- -- -- -- -- -- -- -- -- -- -- --
WDir VRB 100 100 100 90 90 90 90 90 90 90 90 90 90
WSpd 6 9 9 9 5 5 5 5 5 5 5 5 5 5
WGst -- -- -- -- -- -- -- -- -- -- -- -- -- --

Raw TAF
KTPA 212059Z 2121/2224 10009KT P6SM SCT050
  FM220200 09005KT P6SM FEW025
  FM221400 09007KT P6SM SCT025
  FM221800 10007KT P6SM SCT045


Raw METAR
KTPA 212253Z VRB06KT 10SM BKN055 29/16 A3030 RMK AO2 SLP260 T02940161
KTPA 212153Z VRB06KT 10SM SCT055 30/16 A3029 RMK AO2 SLP255 T03000161
KTPA 212053Z 09008KT 10SM SCT050 31/16 A3029 RMK AO2 SLP257 T03060161 56019
KTPA 211953Z 12009G16KT 10SM SCT050 30/17 A3031 RMK AO2 SLP262 T03000167

METAR Board
Radar Display
Forecast Discussion

FOR SITUATIONAL AWARENESS. NOT TO BE USED FOR FLIGHT PLANNING PURPOSES.